Time;durP1;ratioP1;P1;durP2;ratioP2;P2;SDS_P1;SDS_P2;PMS_P1;PMS_P2;Temp;Humidity;BMP_temperature;BMP_pressure;BME280_temperature;BME280_humidity;BME280_pressure;Samples;Min_cycle;Max_cycle;Signal;HPM_P1;HPM_P2
2022/03/27 00:02:18;;;;;;;14.65;7.57;;;7.90;11.40;;;;;;6089776;23;20026;-87
2022/03/27 00:04:44;;;;;;;13.52;7.32;;;7.60;10.80;;;;;;6043937;23;20121;-87
2022/03/27 00:07:10;;;;;;;13.93;7.68;;;7.60;8.30;;;;;;6092864;23;20026;-87
2022/03/27 00:09:36;;;;;;;14.30;7.60;;;9.80;12.10;;;;;;6092662;23;20081;-87
2022/03/27 00:12:03;;;;;;;14.40;7.10;;;7.50;10.10;;;;;;6045197;23;20070;-87
2022/03/27 00:14:29;;;;;;;14.07;7.85;;;7.60;7.50;;;;;;6068521;23;20026;-87
2022/03/27 00:16:54;;;;;;;12.45;7.05;;;7.40;4.10;;;;;;6068182;23;20057;-86
2022/03/27 00:19:20;;;;;;;12.32;7.13;;;;;;;;;;6067593;23;20342;-88
2022/03/27 00:21:46;;;;;;;13.05;7.13;;;7.40;3.50;;;;;;6044887;23;20038;-88
2022/03/27 00:24:12;;;;;;;14.45;7.60;;;7.40;3.20;;;;;;6043679;23;20460;-88
2022/03/27 00:26:39;;;;;;;15.27;7.43;;;8.80;12.00;;;;;;6068195;23;20023;-87
2022/03/27 00:29:05;;;;;;;12.73;7.33;;;8.60;7.40;;;;;;6044701;23;20018;-87
2022/03/27 00:31:35;;;;;;;15.45;7.43;;;9.40;14.20;;;;;;6043552;23;20081;-87
2022/03/27 00:34:11;;;;;;;14.13;7.13;;;8.20;13.50;;;;;;6045818;23;20059;-87
2022/03/27 00:36:37;;;;;;;12.82;7.05;;;;;;;;;;6022779;23;20018;-88
2022/03/27 00:39:03;;;;;;;12.18;6.40;;;7.30;4.80;;;;;;6021656;23;20018;-88
2022/03/27 00:41:30;;;;;;;14.38;7.15;;;7.30;14.70;;;;;;6044585;23;20018;-89
2022/03/27 00:43:58;;;;;;;19.83;7.22;;;7.30;3.70;;;;;;6044718;23;20022;-90
2022/03/27 00:46:24;;;;;;;14.68;7.40;;;7.40;13.00;;;;;;6044449;23;20299;-88
2022/03/27 00:48:50;;;;;;;15.57;7.55;;;7.40;4.10;;;;;;6092306;23;20022;-87
2022/03/27 00:51:18;;;;;;;15.85;7.32;;;7.50;11.50;;;;;;6021372;23;20406;-88
2022/03/27 00:53:44;;;;;;;14.38;6.85;;;7.30;4.50;;;;;;6044891;23;20238;-88
2022/03/27 00:56:09;;;;;;;11.90;6.75;;;7.40;11.40;;;;;;6045087;23;20480;-87
2022/03/27 00:58:35;;;;;;;15.00;7.30;;;7.30;3.60;;;;;;6044427;23;20019;-87
2022/03/27 01:01:14;;;;;;;13.90;7.43;;;7.50;13.60;;;;;;6043983;23;20034;-87
2022/03/27 01:03:41;;;;;;;15.20;7.32;;;9.20;10.40;;;;;;6044023;23;20011;-88
2022/03/27 01:06:26;;;;;;;14.38;6.85;;;7.50;11.90;;;;;;6044967;23;20486;-88
2022/03/27 01:11:39;;;;;;;18.08;7.75;;;7.50;8.50;;;;;;6048623;23;20030;-88
2022/03/27 01:14:09;;;;;;;14.48;7.20;;;7.50;12.90;;;;;;6044083;23;20272;-87
2022/03/27 01:16:43;;;;;;;12.85;6.88;;;6.00;7.40;;;;;;6044579;23;20023;-88
2022/03/27 01:19:16;;;;;;;17.00;7.55;;;7.40;4.10;;;;;;6044452;23;20089;-87
2022/03/27 01:21:46;;;;;;;15.90;8.07;;;7.80;6.60;;;;;;6069063;23;20101;-87
2022/03/27 01:24:16;;;;;;;16.02;7.63;;;7.50;10.70;;;;;;6045080;23;20102;-89
2022/03/27 01:26:46;;;;;;;20.02;9.57;;;;;;;;;;6068076;23;20026;-87
2022/03/27 01:29:12;;;;;;;20.88;9.70;;;7.50;4.80;;;;;;6044045;23;20500;-88
2022/03/27 01:31:38;;;;;;;22.13;10.15;;;8.20;9.40;;;;;;6043034;23;20440;-87
2022/03/27 01:34:05;;;;;;;22.55;11.93;;;8.00;10.50;;;;;;6066949;23;20023;-87
2022/03/27 01:36:36;;;;;;;23.48;10.70;;;7.70;8.40;;;;;;6020281;23;20183;-86
2022/03/27 01:39:13;;;;;;;20.88;11.35;;;7.70;7.30;;;;;;6092362;23;20026;-87
2022/03/27 01:41:40;;;;;;;29.35;11.52;;;7.50;7.00;;;;;;6019694;23;20020;-87
2022/03/27 01:44:08;;;;;;;23.73;12.77;;;7.60;6.40;;;;;;6019807;23;20029;-87
2022/03/27 01:46:35;;;;;;;;;;;7.40;3.30;;;;;;6091304;23;20741;-87
2022/03/27 01:49:07;;;;;;;20.73;11.30;;;9.10;8.50;;;;;;6062832;23;19996;-87
2022/03/27 01:51:36;;;;;;;27.23;12.55;;;7.50;6.80;;;;;;6038830;23;20061;-87
2022/03/27 01:54:03;;;;;;;22.45;11.02;;;7.50;6.80;;;;;;6039384;23;20094;-87
2022/03/27 01:56:30;;;;;;;20.83;10.73;;;;;;;;;;6039218;23;20078;-88
2022/03/27 01:58:56;;;;;;;21.88;11.98;;;7.20;2.50;;;;;;6065453;23;20109;-88
2022/03/27 02:01:22;;;;;;;23.55;11.52;;;7.00;6.70;;;;;;6037458;23;20019;-88
2022/03/27 02:03:49;;;;;;;24.83;12.75;;;7.20;10.80;;;;;;6062199;23;20090;-88
2022/03/27 02:06:25;;;;;;;26.83;11.40;;;8.30;8.10;;;;;;6063863;23;20074;-87
2022/03/27 02:08:52;;;;;;;24.45;10.98;;;7.10;6.60;;;;;;6037784;23;20061;-89
2022/03/27 02:11:21;;;;;;;23.85;11.25;;;6.30;8.90;;;;;;6038950;23;20027;-88
2022/03/27 02:13:47;;;;;;;31.00;12.35;;;;;;;;;;6038074;23;20015;-88
2022/03/27 02:19:23;;;;;;;23.85;11.13;;;8.80;13.40;;;;;;6061610;23;20157;-89
2022/03/27 02:21:57;;;;;;;24.83;11.25;;;7.00;15.10;;;;;;6013022;23;20216;-88
2022/03/27 02:24:22;;;;;;;24.25;11.65;;;7.00;9.20;;;;;;6038661;23;20019;-87
2022/03/27 02:26:52;;;;;;;30.45;12.68;;;6.70;7.10;;;;;;6037602;23;20123;-89
2022/03/27 02:29:32;;;;;;;24.48;12.43;;;6.80;7.20;;;;;;6016100;23;20138;-90
2022/03/27 02:31:58;;;;;;;27.92;12.48;;;6.80;11.80;;;;;;6064045;23;20022;-88
2022/03/27 02:34:24;;;;;;;21.15;11.25;;;8.40;14.80;;;;;;6039607;23;20077;-88
2022/03/27 02:37:02;;;;;;;28.63;12.40;;;7.00;15.80;;;;;;6062469;23;20227;-89
2022/03/27 02:39:33;;;;;;;27.42;12.95;;;6.80;13.00;;;;;;6039147;23;20068;-86
2022/03/27 02:42:06;;;;;;;29.35;12.82;;;8.80;17.00;;;;;;6038410;23;20026;-92
2022/03/27 02:44:32;;;;;;;30.75;12.73;;;6.80;10.90;;;;;;6038665;23;20026;-89
2022/03/27 02:47:01;;;;;;;40.60;13.50;;;5.70;14.30;;;;;;6037641;23;20015;-89
2022/03/27 02:49:35;;;;;;;32.38;13.48;;;6.80;6.80;;;;;;6042396;23;20026;-88
2022/03/27 02:52:01;;;;;;;28.50;13.95;;;8.80;16.20;;;;;;6041828;23;20132;-87
2022/03/27 02:54:27;;;;;;;28.60;14.00;;;5.60;14.80;;;;;;6042163;23;20113;-89
2022/03/27 02:56:53;;;;;;;36.17;14.23;;;8.60;17.70;;;;;;6042481;23;20081;-88
2022/03/27 02:59:22;;;;;;;29.58;13.95;;;8.20;15.80;;;;;;6067632;23;20018;-88
2022/03/27 03:01:50;;;;;;;32.38;14.65;;;6.60;12.40;;;;;;6041968;23;20018;-88
2022/03/27 03:04:21;;;;;;;33.22;14.35;;;6.90;9.80;;;;;;6091757;23;20098;-88
2022/03/27 03:06:55;;;;;;;34.97;13.43;;;6.60;7.60;;;;;;6019561;23;20103;-89
2022/03/27 03:09:21;;;;;;;37.65;13.05;;;;;;;;;;6019630;23;20292;-89
2022/03/27 03:11:50;;;;;;;28.00;13.05;;;6.70;8.80;;;;;;6067784;23;20026;-90
2022/03/27 03:14:16;;;;;;;25.38;11.65;;;;;;;;;;6040124;23;20019;-90
2022/03/27 03:16:55;;;;;;;29.13;12.05;;;6.70;7.90;;;;;;6041129;23;20381;-88
2022/03/27 03:19:22;;;;;;;31.48;11.88;;;6.60;13.90;;;;;;6043137;23;20444;-88
2022/03/27 03:21:53;;;;;;;30.42;11.32;;;6.60;13.40;;;;;;6044065;23;20057;-88
2022/03/27 03:24:25;;;;;;;31.55;11.20;;;7.00;16.70;;;;;;6042125;23;20037;-90
2022/03/27 03:26:52;;;;;;;27.73;10.57;;;6.70;12.80;;;;;;6043423;23;20057;-91
2022/03/27 03:29:24;;;;;;;29.45;11.15;;;8.90;15.80;;;;;;6043607;23;20113;-88
2022/03/27 03:31:52;;;;;;;27.13;10.40;;;6.70;14.50;;;;;;6041882;23;20097;-88
2022/03/27 03:34:21;;;;;;;30.27;10.50;;;6.60;9.30;;;;;;6020439;23;20022;-88
2022/03/27 03:36:47;;;;;;;26.05;9.90;;;6.60;9.20;;;;;;6068170;23;20022;-89
2022/03/27 03:39:18;;;;;;;31.30;10.70;;;8.20;16.60;;;;;;6020250;23;20018;-89
2022/03/27 03:41:44;;;;;;;23.00;10.10;;;6.50;18.50;;;;;;6021146;23;20306;-88
2022/03/27 03:44:23;;;;;;;25.42;10.02;;;6.60;19.80;;;;;;6045835;23;20121;-89
2022/03/27 03:46:58;;;;;;;31.67;10.10;;;6.90;18.40;;;;;;6023662;23;20097;-90
2022/03/27 03:49:27;;;;;;;28.77;9.43;;;6.80;21.70;;;;;;6096118;23;20014;-91
2022/03/27 03:51:53;;;;;;;27.10;9.68;;;7.50;13.50;;;;;;6070068;23;20106;-89
2022/03/27 03:54:21;;;;;;;26.60;10.27;;;6.70;19.80;;;;;;6047106;23;20118;-88
2022/03/27 03:56:51;;;;;;;31.10;9.65;;;8.30;19.80;;;;;;6046043;23;20022;-89
2022/03/27 03:59:28;;;;;;;29.55;9.32;;;6.80;11.70;;;;;;6046222;23;20014;-88
2022/03/27 04:02:07;;;;;;;33.60;10.32;;;7.90;14.70;;;;;;6071054;23;20373;-89
2022/03/27 04:04:43;;;;;;;32.20;10.85;;;4.40;15.20;;;;;;6025923;23;20162;-89
2022/03/27 04:07:16;;;;;;;30.92;11.20;;;8.50;15.90;;;;;;6046548;23;20512;-89
2022/03/27 04:09:43;;;;;;;29.00;11.00;;;;;;;;;;6046555;23;20482;-92
2022/03/27 04:12:12;;;;;;;38.92;11.18;;;7.10;14.80;;;;;;6045254;23;20113;-88
2022/03/27 04:14:43;;;;;;;34.08;11.35;;;8.90;23.10;;;;;;6022156;23;20069;-88
2022/03/27 04:17:11;;;;;;;35.50;11.95;;;6.90;14.70;;;;;;6046015;23;20462;-89
2022/03/27 04:19:37;;;;;;;37.17;12.18;;;6.00;23.60;;;;;;6045515;23;20014;-89
2022/03/27 04:22:04;;;;;;;37.55;12.40;;;7.30;22.00;;;;;;6043968;23;20018;-88
2022/03/27 04:24:30;;;;;;;33.17;11.80;;;6.90;18.10;;;;;;6021631;23;20513;-88
2022/03/27 04:26:56;;;;;;;32.83;13.23;;;7.40;20.90;;;;;;6043104;23;20026;-87
2022/03/27 04:29:26;;;;;;;38.47;13.63;;;6.90;15.30;;;;;;6044381;23;20014;-88
2022/03/27 04:31:52;;;;;;;42.80;12.47;;;7.20;22.90;;;;;;6043838;23;20438;-88
2022/03/27 04:34:18;;;;;;;36.97;12.23;;;7.10;23.90;;;;;;6043838;23;20085;-88
2022/03/27 04:36:44;;;;;;;30.90;12.00;;;;;;;;;;6045219;23;20015;-88
2022/03/27 04:39:10;;;;;;;32.58;11.65;;;7.00;16.30;;;;;;6043194;23;20019;-87
2022/03/27 04:41:36;;;;;;;36.05;12.27;;;7.00;15.30;;;;;;6020843;23;20438;-88
2022/03/27 04:44:05;;;;;;;32.60;10.95;;;7.10;23.40;;;;;;6067281;23;20019;-88
2022/03/27 04:46:31;;;;;;;34.50;11.13;;;7.00;15.90;;;;;;6043925;23;20025;-87
2022/03/27 04:49:03;;;;;;;28.13;10.93;;;6.90;16.00;;;;;;6037664;23;20018;-87
2022/03/27 04:51:32;;;;;;;37.33;11.40;;;7.00;18.60;;;;;;6038162;23;20353;-87
2022/03/27 04:53:57;;;;;;;42.85;12.25;;;7.40;21.20;;;;;;6038096;23;20018;-87
2022/03/27 04:56:26;;;;;;;38.90;11.57;;;9.20;24.50;;;;;;6038480;23;20021;-87
2022/03/27 04:58:52;;;;;;;41.40;11.18;;;6.90;16.50;;;;;;6014676;23;20098;-87
2022/03/27 05:01:18;;;;;;;42.58;12.18;;;;;;;;;;6062193;23;20443;-88
2022/03/27 05:03:43;;;;;;;32.17;11.27;;;6.90;17.50;;;;;;6062549;23;20042;-87
2022/03/27 05:06:09;;;;;;;26.65;10.02;;;5.10;19.50;;;;;;6037645;23;20407;-87
2022/03/27 05:08:38;;;;;;;33.40;11.20;;;5.80;16.90;;;;;;6061953;23;20208;-88
2022/03/27 05:11:05;;;;;;;38.50;11.00;;;6.90;17.10;;;;;;6061310;23;20118;-87
2022/03/27 05:13:31;;;;;;;31.90;11.07;;;7.70;26.00;;;;;;6062639;23;20078;-87
2022/03/27 05:15:57;;;;;;;32.67;10.68;;;6.90;17.00;;;;;;6011188;23;20332;-87
2022/03/27 05:18:22;;;;;;;54.25;10.93;;;6.80;18.30;;;;;;6010738;23;20316;-87
2022/03/27 05:20:48;;;;;;;40.20;10.25;;;8.70;26.60;;;;;;6034296;23;20165;-87
2022/03/27 05:23:14;;;;;;;42.92;10.75;;;8.70;25.50;;;;;;6034882;23;20105;-88
2022/03/27 05:25:45;;;;;;;46.20;9.82;;;;;;;;;;6037403;23;20107;-88
2022/03/27 05:28:14;;;;;;;71.10;9.40;;;6.80;22.20;;;;;;6036882;23;20015;-88
2022/03/27 05:30:40;;;;;;;87.88;10.75;;;6.90;25.90;;;;;;6036833;23;20029;-87
2022/03/27 05:33:08;;;;;;;45.97;9.73;;;6.70;26.40;;;;;;6061052;23;20022;-88
2022/03/27 05:35:37;;;;;;;47.40;9.75;;;8.80;31.80;;;;;;6037422;23;20029;-87
2022/03/27 05:38:03;;;;;;;51.88;9.48;;;;;;;;;;6085833;23;20357;-87
2022/03/27 05:40:42;;;;;;;43.33;8.60;;;6.90;23.10;;;;;;6037613;23;20023;-88
2022/03/27 05:43:08;;;;;;;81.97;11.27;;;6.80;26.70;;;;;;6014875;23;20069;-88
2022/03/27 05:45:43;;;;;;;29.08;8.65;;;6.60;25.60;;;;;;6014329;23;20015;-88
2022/03/27 05:48:12;;;;;;;45.63;9.70;;;6.90;30.70;;;;;;5933487;23;1977065;-88
2022/03/27 05:50:40;;;;;;;46.88;8.77;;;5.00;32.80;;;;;;6040734;23;20118;-88
2022/03/27 05:53:06;;;;;;;34.47;8.80;;;6.80;41.10;;;;;;6039180;23;20023;-86
2022/03/27 05:55:32;;;;;;;60.03;10.40;;;6.80;35.00;;;;;;6062836;23;20094;-87
2022/03/27 05:57:59;;;;;;;379.00;23.08;;;8.50;29.50;;;;;;6063245;23;20106;-91
2022/03/27 06:00:26;;;;;;;61.87;9.53;;;6.70;28.10;;;;;;6064169;23;20021;-86
2022/03/27 06:02:53;;;;;;;52.83;9.75;;;6.70;33.40;;;;;;6063402;23;20392;-87
2022/03/27 06:05:23;;;;;;;49.00;8.73;;;6.90;36.40;;;;;;6086286;23;20434;-87
2022/03/27 06:07:51;;;;;;;33.05;8.52;;;6.70;31.40;;;;;;6040413;23;20098;-86
2022/03/27 06:10:21;;;;;;;41.67;9.23;;;6.50;32.10;;;;;;6087420;23;20185;-86
2022/03/27 06:12:47;;;;;;;134.85;13.27;;;7.00;33.20;;;;;;6040353;23;20023;-87
2022/03/27 06:15:16;;;;;;;112.90;11.48;;;6.80;30.70;;;;;;6038397;23;20093;-87
2022/03/27 06:17:44;;;;;;;39.92;8.75;;;8.60;41.90;;;;;;6064772;23;20348;-88
2022/03/27 06:20:13;;;;;;;167.90;13.30;;;6.90;34.60;;;;;;6040580;23;20054;-87
2022/03/27 06:22:40;;;;;;;55.72;9.05;;;5.20;32.80;;;;;;6064812;23;20101;-87
2022/03/27 06:25:09;;;;;;;33.47;8.98;;;6.70;35.50;;;;;;6087887;23;20340;-88
2022/03/27 06:27:36;;;;;;;31.08;8.48;;;7.00;34.00;;;;;;6064628;23;20041;-87
2022/03/27 06:30:04;;;;;;;34.80;7.83;;;9.20;33.60;;;;;;6062870;23;20465;-90
2022/03/27 06:32:30;;;;;;;28.52;8.20;;;7.30;33.20;;;;;;6039194;23;20342;-87
2022/03/27 06:35:00;;;;;;;40.90;9.57;;;7.30;37.30;;;;;;6015672;23;20109;-87
2022/03/27 06:37:27;;;;;;;38.83;8.82;;;7.50;33.60;;;;;;6063967;23;20114;-87
2022/03/27 06:39:56;;;;;;;34.75;9.25;;;7.50;34.30;;;;;;6065051;23;20022;-85
2022/03/27 06:42:25;;;;;;;139.73;12.48;;;7.30;32.40;;;;;;6061212;23;20122;-87
2022/03/27 06:44:52;;;;;;;41.97;8.32;;;7.40;33.60;;;;;;6016321;23;20094;-90
2022/03/27 06:47:21;;;;;;;33.85;8.75;;;7.40;32.90;;;;;;6038118;23;20026;-88
2022/03/27 06:49:48;;;;;;;39.17;8.48;;;9.30;31.30;;;;;;6063685;23;20394;-86
2022/03/27 06:52:15;;;;;;;34.53;8.27;;;7.80;29.70;;;;;;6015401;23;20415;-87
2022/03/27 06:54:44;;;;;;;34.78;8.18;;;7.80;26.60;;;;;;6065032;23;20015;-86
2022/03/27 06:57:10;;;;;;;33.25;7.57;;;7.80;23.30;;;;;;6064721;23;20025;-86
2022/03/27 07:05:15;;;;;;;30.00;7.50;;;;;;;;;;6071755;23;20022;-85
2022/03/27 07:07:42;;;;;;;47.22;8.52;;;8.00;19.40;;;;;;6073168;23;20030;-88
2022/03/27 07:10:10;;;;;;;43.38;8.90;;;8.20;20.50;;;;;;6073461;23;20027;-87
2022/03/27 07:12:37;;;;;;;50.70;9.15;;;8.20;18.20;;;;;;6075659;23;20019;-90
2022/03/27 07:15:03;;;;;;;42.77;9.30;;;8.10;17.90;;;;;;6044959;23;20050;-94
2022/03/27 07:17:30;;;;;;;51.17;9.00;;;8.20;12.40;;;;;;6071415;23;20255;-87
2022/03/27 07:19:56;;;;;;;40.65;8.93;;;;;;;;;;6023719;23;20051;-88
2022/03/27 07:22:22;;;;;;;47.47;9.30;;;8.20;11.30;;;;;;6064826;23;20018;-87
2022/03/27 07:24:48;;;;;;;45.13;8.60;;;8.40;16.60;;;;;;6063717;23;20119;-87
2022/03/27 07:27:14;;;;;;;44.35;9.45;;;8.40;12.40;;;;;;6087305;23;20055;-86
2022/03/27 07:29:40;;;;;;;41.95;9.07;;;8.40;13.10;;;;;;6064780;23;20078;-86
2022/03/27 07:32:07;;;;;;;42.95;9.90;;;7.00;12.00;;;;;;6064862;23;20107;-92
2022/03/27 07:34:34;;;;;;;41.63;9.10;;;8.60;10.20;;;;;;6064530;23;20030;-86
2022/03/27 07:37:01;;;;;;;57.58;10.43;;;8.80;6.10;;;;;;6062000;23;20813;-85
2022/03/27 07:39:29;;;;;;;50.45;10.40;;;9.10;6.10;;;;;;6038679;23;20085;-87
2022/03/27 07:41:57;;;;;;;;;;;8.80;8.60;;;;;;6039776;23;20030;-87
2022/03/27 07:44:23;;;;;;;46.30;9.40;;;9.60;7.10;;;;;;6038724;23;19925;-88
2022/03/27 07:46:49;;;;;;;46.33;9.35;;;9.00;9.40;;;;;;6064843;23;20019;-87
2022/03/27 07:49:16;;;;;;;47.85;10.00;;;8.90;1.00;;;;;;6061748;23;20026;-86
2022/03/27 07:51:43;;;;;;;51.20;9.75;;;8.90;1.00;;;;;;6062855;23;20520;-85
2022/03/27 07:54:08;;;;;;;65.50;9.85;;;8.90;1.00;;;;;;6039094;23;20101;-90
2022/03/27 07:56:36;;;;;;;46.22;9.27;;;9.20;3.40;;;;;;6038510;23;20477;-92
2022/03/27 07:59:02;;;;;;;50.10;9.88;;;11.30;1.00;;;;;;6062751;23;20386;-85
2022/03/27 08:01:28;;;;;;;42.25;10.48;;;;;;;;;;6063566;23;20019;-86
2022/03/27 08:03:56;;;;;;;47.80;9.32;;;;;;;;;;6062864;23;20343;-86
2022/03/27 08:09:24;;;;;;;44.63;10.02;;;11.70;1.00;;;;;;6040715;23;20022;-86
2022/03/27 08:11:52;;;;;;;54.55;9.27;;;10.00;1.00;;;;;;6040041;23;20042;-86
2022/03/27 08:14:18;;;;;;;;;;;11.50;1.00;;;;;;6064094;23;20062;-87
2022/03/27 08:16:44;;;;;;;42.90;8.98;;;11.60;1.00;;;;;;6038736;23;19925;-88
2022/03/27 08:19:14;;;;;;;39.45;9.07;;;12.00;1.00;;;;;;6016672;23;20034;-87
2022/03/27 08:21:44;;;;;;;37.20;8.02;;;13.60;1.00;;;;;;5993851;23;20065;-86
2022/03/27 08:24:10;;;;;;;41.67;8.75;;;13.70;1.00;;;;;;6016452;23;20019;-85
2022/03/27 08:29:24;;;;;;;39.22;9.15;;;14.30;1.00;;;;;;6062313;23;20026;-86
2022/03/27 08:31:53;;;;;;;30.73;7.45;;;15.50;1.00;;;;;;6065519;23;20030;-87
2022/03/27 08:34:20;;;;;;;29.25;7.00;;;16.10;1.00;;;;;;6063768;23;20126;-86
2022/03/27 08:36:46;;;;;;;37.90;7.20;;;16.40;1.00;;;;;;6088941;23;20537;-87
2022/03/27 08:39:13;;;;;;;32.03;7.80;;;16.60;1.00;;;;;;6066291;23;20253;-87
2022/03/27 08:41:44;;;;;;;34.70;6.75;;;17.00;1.00;;;;;;6064491;23;20054;-85
2022/03/27 08:44:11;;;;;;;41.55;8.10;;;18.60;1.00;;;;;;6064160;23;20071;-89
2022/03/27 08:46:37;;;;;;;34.43;7.77;;;16.70;1.00;;;;;;6064467;23;20047;-86
2022/03/27 08:49:19;;;;;;;35.20;7.50;;;18.50;1.00;;;;;;6081912;23;20014;-85
2022/03/27 08:52:01;;;;;;;24.83;6.25;;;19.30;1.00;;;;;;6047317;23;20093;-86
2022/03/27 08:54:48;;;;;;;29.67;7.90;;;20.00;1.00;;;;;;6095771;23;20014;-86
2022/03/27 08:57:39;;;;;;;34.38;7.68;;;20.50;1.00;;;;;;6095805;23;20515;-87
2022/03/27 09:00:06;;;;;;;39.22;7.05;;;21.00;1.00;;;;;;6094238;23;20262;-87
2022/03/27 09:02:32;;;;;;;27.85;6.28;;;21.60;1.00;;;;;;6096218;23;20018;-86
2022/03/27 09:05:04;;;;;;;26.90;6.75;;;21.40;1.00;;;;;;6069728;23;20018;-88
2022/03/27 09:07:30;;;;;;;31.23;7.20;;;22.20;99.90;;;;;;6045652;23;20023;-87
2022/03/27 09:10:00;;;;;;;30.60;7.00;;;22.50;1.00;;;;;;6070263;23;20054;-89
2022/03/27 09:12:26;;;;;;;29.83;6.90;;;;;;;;;;6069962;23;20022;-87
2022/03/27 09:14:52;;;;;;;26.77;6.55;;;22.80;99.90;;;;;;6045786;23;20019;-87
2022/03/27 09:17:18;;;;;;;29.88;6.68;;;22.70;99.90;;;;;;6094162;23;20426;-87
2022/03/27 09:19:50;;;;;;;26.58;6.90;;;22.80;99.90;;;;;;6021541;23;20074;-88
2022/03/27 09:22:29;;;;;;;27.40;7.40;;;22.80;99.90;;;;;;6069036;23;20022;-87
2022/03/27 09:25:03;;;;;;;25.00;6.05;;;23.10;99.90;;;;;;6070164;23;20150;-87
2022/03/27 09:27:32;;;;;;;22.02;6.22;;;21.90;99.90;;;;;;6069787;23;20291;-87
2022/03/27 09:30:07;;;;;;;23.48;6.15;;;23.20;99.90;;;;;;6093685;23;20049;-88
2022/03/27 09:32:36;;;;;;;25.50;6.60;;;23.30;99.90;;;;;;6071261;23;20037;-85
2022/03/27 09:35:04;;;;;;;25.38;6.65;;;23.60;99.90;;;;;;6095851;23;20021;-86
2022/03/27 09:37:30;;;;;;;;;;;24.00;99.90;;;;;;6094990;23;20023;-86
2022/03/27 09:39:59;;;;;;;23.27;7.10;;;23.50;99.90;;;;;;6045330;23;19936;-90
2022/03/27 09:42:26;;;;;;;22.95;7.30;;;23.90;99.90;;;;;;6069141;23;20072;-89
2022/03/27 09:45:11;;;;;;;26.40;6.22;;;24.20;99.90;;;;;;6093446;23;20022;-87
2022/03/27 09:47:38;;;;;;;22.92;6.75;;;24.40;99.90;;;;;;6045240;23;20022;-87
2022/03/27 09:50:04;;;;;;;28.85;7.07;;;24.50;99.90;;;;;;6068954;23;20101;-87
2022/03/27 09:52:30;;;;;;;26.30;6.47;;;24.70;99.90;;;;;;6095165;23;20324;-87
2022/03/27 09:55:07;;;;;;;23.63;6.35;;;25.00;99.90;;;;;;6045365;23;20033;-88
2022/03/27 09:57:38;;;;;;;23.50;6.55;;;24.80;99.90;;;;;;6092808;23;20026;-86
2022/03/27 10:00:14;;;;;;;26.85;6.88;;;24.80;99.90;;;;;;6044093;23;20444;-86
2022/03/27 10:02:48;;;;;;;27.45;6.95;;;25.00;99.90;;;;;;6045172;23;20018;-86
2022/03/27 10:05:22;;;;;;;32.55;8.23;;;25.30;99.90;;;;;;6044911;23;20387;-86
2022/03/27 10:07:56;;;;;;;25.63;6.90;;;25.30;99.90;;;;;;6068826;23;20029;-87
2022/03/27 10:10:25;;;;;;;29.35;7.05;;;24.50;99.90;;;;;;6093996;23;20030;-88
2022/03/27 10:12:53;;;;;;;24.23;7.30;;;24.90;99.90;;;;;;6044680;23;20029;-88
2022/03/27 10:15:32;;;;;;;25.33;7.03;;;25.50;99.90;;;;;;6068011;23;20044;-87
2022/03/27 10:18:13;;;;;;;28.33;6.68;;;26.10;99.90;;;;;;6091908;23;20022;-88
2022/03/27 10:20:39;;;;;;;22.55;6.60;;;26.50;99.90;;;;;;6066657;23;20022;-87
2022/03/27 10:23:22;;;;;;;27.65;6.53;;;26.90;99.90;;;;;;6068567;23;20024;-87
2022/03/27 10:26:01;;;;;;;29.50;6.93;;;26.90;99.90;;;;;;6094078;23;20394;-88
2022/03/27 10:28:31;;;;;;;24.95;6.78;;;26.60;99.90;;;;;;6094189;23;20029;-90
2022/03/27 10:31:00;;;;;;;26.92;6.70;;;26.20;99.90;;;;;;6068074;23;20018;-89
2022/03/27 10:33:31;;;;;;;19.30;6.40;;;26.70;99.90;;;;;;6044192;23;20023;-87
2022/03/27 10:36:26;;;;;;;29.00;6.32;;;27.20;99.90;;;;;;6093986;23;20014;-87
2022/03/27 10:39:50;;;;;;;21.67;6.55;;;27.60;99.90;;;;;;6044258;23;20113;-88
2022/03/27 10:42:38;;;;;;;25.90;6.55;;;27.90;99.90;;;;;;5986381;23;20015;-88
2022/03/27 10:45:26;;;;;;;27.13;6.68;;;27.90;99.90;;;;;;6008265;23;20023;-88
2022/03/27 10:48:13;;;;;;;28.20;7.07;;;27.80;99.90;;;;;;6053535;23;20026;-89
2022/03/27 10:50:51;;;;;;;29.25;6.95;;;27.70;99.90;;;;;;6043978;23;20026;-88
2022/03/27 10:53:25;;;;;;;25.48;6.00;;;28.10;99.90;;;;;;6092872;23;20022;-87
2022/03/27 10:55:53;;;;;;;25.98;6.40;;;28.20;99.90;;;;;;6044050;23;20026;-87
2022/03/27 10:58:33;;;;;;;22.77;6.75;;;28.00;99.90;;;;;;6092427;23;20024;-88
2022/03/27 11:01:04;;;;;;;26.98;6.60;;;27.90;99.90;;;;;;6093223;23;20438;-86
2022/03/27 11:04:04;;;;;;;28.10;6.50;;;27.30;99.90;;;;;;6045207;23;20015;-86
2022/03/27 11:06:46;;;;;;;22.92;5.75;;;27.10;99.90;;;;;;6045187;23;20022;-88
2022/03/27 11:09:30;;;;;;;23.50;5.63;;;27.40;99.90;;;;;;6045987;23;20065;-88
2022/03/27 11:12:34;;;;;;;24.60;5.78;;;28.90;99.90;;;;;;6067311;23;20030;-89
2022/03/27 11:15:00;;;;;;;24.35;5.68;;;27.80;99.90;;;;;;6043761;23;20361;-87
2022/03/27 11:17:55;;;;;;;23.58;6.00;;;28.40;99.90;;;;;;6095601;23;20052;-87
2022/03/27 11:20:24;;;;;;;23.00;6.78;;;28.70;99.90;;;;;;6068518;23;20080;-86
2022/03/27 11:22:55;;;;;;;21.90;6.10;;;31.50;99.90;;;;;;6045111;23;20022;-86
2022/03/27 11:25:41;;;;;;;18.35;4.82;;;27.10;99.90;;;;;;6093343;23;20019;-90
2022/03/27 11:28:13;;;;;;;21.52;5.60;;;29.70;99.90;;;;;;6044583;23;20422;-89
2022/03/27 11:31:00;;;;;;;24.80;5.70;;;29.50;99.90;;;;;;6042902;23;20272;-90
2022/03/27 11:33:30;;;;;;;21.65;5.95;;;29.30;99.90;;;;;;6045045;23;20058;-93
2022/03/27 11:36:07;;;;;;;26.40;6.22;;;29.00;99.90;;;;;;6044014;23;20019;-90
2022/03/27 11:38:52;;;;;;;24.38;5.70;;;29.30;99.90;;;;;;6044704;23;20128;-87
2022/03/27 11:41:43;;;;;;;19.88;5.47;;;29.50;99.90;;;;;;6068123;23;20083;-89
2022/03/27 11:47:20;;;;;;;16.25;4.85;;;29.50;99.90;;;;;;6067822;23;20058;-89
2022/03/27 11:49:48;;;;;;;20.55;4.95;;;29.10;99.90;;;;;;6069030;23;20022;-89
2022/03/27 11:52:16;;;;;;;17.70;4.70;;;28.90;99.90;;;;;;6068576;23;20023;-88
2022/03/27 11:54:42;;;;;;;17.95;4.50;;;28.90;99.90;;;;;;6046141;23;20025;-89
2022/03/27 11:57:16;;;;;;;19.63;5.55;;;28.80;99.90;;;;;;6043998;23;20373;-89
2022/03/27 11:59:52;;;;;;;21.65;4.90;;;28.80;99.90;;;;;;6092695;23;20077;-85
2022/03/27 12:02:45;;;;;;;22.60;4.93;;;28.80;99.90;;;;;;6042945;23;20030;-90
2022/03/27 12:05:14;;;;;;;18.15;4.80;;;28.80;99.90;;;;;;6038617;23;20050;-91
2022/03/27 12:07:51;;;;;;;15.80;3.83;;;28.90;99.90;;;;;;6045519;23;20464;-92
2022/03/27 12:10:18;;;;;;;14.63;4.22;;;28.80;99.90;;;;;;6046664;23;20489;-86
2022/03/27 12:13:02;;;;;;;18.05;4.68;;;28.80;99.90;;;;;;6094201;23;20065;-89
2022/03/27 12:15:40;;;;;;;18.08;4.90;;;28.20;99.90;;;;;;6095246;23;20156;-85
2022/03/27 12:18:06;;;;;;;19.35;5.18;;;26.80;99.90;;;;;;6095302;23;20033;-84
2022/03/27 12:20:48;;;;;;;19.55;4.93;;;25.30;99.90;;;;;;6045276;23;20030;-89
2022/03/27 12:23:25;;;;;;;21.30;5.07;;;24.00;99.90;;;;;;6070653;23;20033;-88
2022/03/27 12:25:58;;;;;;;23.80;4.35;;;22.80;99.90;;;;;;6046223;23;20449;-87
2022/03/27 12:31:23;;;;;;;22.27;5.43;;;20.90;99.90;;;;;;6093140;23;20038;-87
2022/03/27 12:33:50;;;;;;;21.10;5.07;;;20.30;99.90;;;;;;6094692;23;20022;-84
2022/03/27 12:36:16;;;;;;;19.98;5.07;;;19.90;99.90;;;;;;6046600;23;20026;-87
2022/03/27 12:38:43;;;;;;;19.40;4.38;;;19.40;99.90;;;;;;6094065;23;20434;-90
2022/03/27 12:41:10;;;;;;;18.00;4.60;;;19.10;99.90;;;;;;6094910;23;20386;-87
2022/03/27 12:43:42;;;;;;;21.50;5.40;;;18.90;99.90;;;;;;6070853;23;20037;-86
2022/03/27 12:46:23;;;;;;;22.98;4.70;;;18.50;99.90;;;;;;6047287;23;20029;-87
2022/03/27 12:49:03;;;;;;;19.90;4.72;;;18.40;99.90;;;;;;6096555;23;20019;-87
2022/03/27 12:51:29;;;;;;;20.27;4.22;;;18.20;99.90;;;;;;6071867;23;20454;-86
2022/03/27 12:54:08;;;;;;;17.40;4.35;;;17.80;99.90;;;;;;6070479;23;20069;-86
2022/03/27 12:56:33;;;;;;;;;;;17.80;99.90;;;;;;6069620;23;20093;-87
2022/03/27 12:59:23;;;;;;;18.17;3.78;;;17.60;99.90;;;;;;6094562;23;19948;-88
2022/03/27 13:01:50;;;;;;;16.30;4.22;;;17.50;99.90;;;;;;6034999;23;20018;-93
2022/03/27 13:04:16;;;;;;;19.25;3.50;;;17.50;99.90;;;;;;6045075;23;20030;-87
2022/03/27 13:06:44;;;;;;;13.73;3.65;;;17.20;99.90;;;;;;6068903;23;20442;-88
2022/03/27 13:09:21;;;;;;;15.88;3.70;;;17.20;99.90;;;;;;6068641;23;20665;-88
2022/03/27 13:11:50;;;;;;;16.55;3.83;;;17.20;99.90;;;;;;6046020;23;20124;-88
2022/03/27 13:14:16;;;;;;;14.93;3.47;;;17.40;99.90;;;;;;6092186;23;20026;-90
2022/03/27 13:16:48;;;;;;;18.48;4.13;;;16.50;99.90;;;;;;6066287;23;20023;-89
2022/03/27 13:19:41;;;;;;;18.10;3.30;;;17.20;99.90;;;;;;6094025;23;20150;-90
2022/03/27 13:22:07;;;;;;;16.20;3.30;;;16.60;99.90;;;;;;6058417;23;20330;-86
2022/03/27 13:24:36;;;;;;;13.38;2.92;;;16.40;99.90;;;;;;6094786;23;20036;-88
2022/03/27 13:27:05;;;;;;;10.77;2.47;;;15.40;99.90;;;;;;6094110;23;20089;-89
2022/03/27 13:29:31;;;;;;;16.05;2.95;;;16.30;99.90;;;;;;6094549;23;20217;-89